createdAt,value
2018-08-10T00:05:01.673Z,99839.95
2018-08-10T00:10:09.063Z,99846.79
2018-08-10T00:15:14.130Z,99860.75
2018-08-10T00:20:18.903Z,99878.48
2018-08-10T00:25:23.641Z,99884.78
2018-08-10T00:30:28.397Z,99898.19
2018-08-10T00:35:33.239Z,99902.55
2018-08-10T00:40:38.072Z,99908.56
2018-08-10T00:45:42.895Z,99923.04
2018-08-10T00:50:47.674Z,99914.22
2018-08-10T00:55:52.434Z,99924.66
2018-08-10T01:00:57.195Z,99937.45
2018-08-10T01:06:02.007Z,99943.20
2018-08-10T01:11:06.779Z,99949.94
2018-08-10T01:16:11.562Z,99956.46
2018-08-10T01:21:16.538Z,99966.81
2018-08-10T01:26:21.324Z,99985.33
2018-08-10T01:31:26.220Z,99999.70
2018-08-10T01:36:30.963Z,99996.93
2018-08-10T01:41:35.704Z,99996.59
2018-08-10T01:46:40.400Z,100009.28
2018-08-10T01:51:45.121Z,100013.94
2018-08-10T01:56:49.857Z,100021.44
2018-08-10T02:01:54.622Z,100032.09
2018-08-10T02:06:59.339Z,100025.50
2018-08-10T02:12:04.095Z,100037.97
2018-08-10T02:17:08.962Z,100053.08
2018-08-10T02:22:13.749Z,100066.69
2018-08-10T02:27:18.464Z,100063.99
2018-08-10T02:32:23.209Z,100054.03
2018-08-10T02:37:28.052Z,100058.08
2018-08-10T02:42:32.784Z,100051.82
2018-08-10T02:47:37.465Z,100051.48
2018-08-10T02:52:42.361Z,100059.75
2018-08-10T02:57:47.055Z,100068.99
2018-08-10T03:02:52.061Z,100080.98
2018-08-10T03:07:56.775Z,100086.73
2018-08-10T03:13:01.424Z,100089.11
2018-08-10T03:18:06.848Z,100105.59
2018-08-10T03:23:11.580Z,100103.88
2018-08-10T03:28:18.274Z,100119.16
2018-08-10T03:33:23.060Z,100112.53
2018-08-10T03:38:27.913Z,100138.43
2018-08-10T03:43:32.650Z,100159.98
2018-08-10T03:48:37.390Z,100168.38
2018-08-10T03:53:42.313Z,100173.44
2018-08-10T03:58:47.016Z,100191.11
2018-08-10T04:03:51.904Z,100191.55
2018-08-10T04:08:56.603Z,100200.86
2018-08-10T04:14:01.552Z,100213.58
2018-08-10T04:19:06.330Z,100224.03
2018-08-10T04:24:11.143Z,100237.80
2018-08-10T04:29:15.891Z,100252.70
2018-08-10T04:34:20.716Z,100261.77
2018-08-10T04:39:25.512Z,100269.27
2018-08-10T04:44:30.334Z,100279.97
2018-08-10T04:49:35.055Z,100279.02
2018-08-10T04:54:39.783Z,100288.56
2018-08-10T04:59:44.595Z,100303.88
2018-08-10T05:04:49.293Z,100300.53
2018-08-10T05:09:54.056Z,100303.53
2018-08-10T05:14:58.967Z,100324.85
2018-08-10T05:20:03.795Z,100322.16
2018-08-10T05:25:08.579Z,100337.14
2018-08-10T05:30:13.346Z,100346.23
2018-08-10T05:35:18.343Z,100344.01
2018-08-10T05:40:23.867Z,100351.41
2018-08-10T05:45:28.752Z,100355.91
2018-08-10T05:50:33.368Z,100363.52
2018-08-10T05:55:38.020Z,100366.50
2018-08-10T06:00:42.905Z,100383.36
2018-08-10T06:05:47.541Z,100391.81
2018-08-10T06:10:52.208Z,100394.41
2018-08-10T06:15:56.989Z,100406.58
2018-08-10T06:21:01.668Z,100411.55
2018-08-10T06:26:06.592Z,100417.47
2018-08-10T06:31:11.289Z,100428.10
2018-08-10T06:36:16.047Z,100425.50
2018-08-10T06:41:20.730Z,100433.70
2018-08-10T06:46:25.525Z,100439.08
2018-08-10T06:51:30.261Z,100442.31
2018-08-10T06:56:35.075Z,100445.45
2018-08-10T07:01:39.892Z,100441.11
2018-08-10T07:06:44.508Z,100435.03
2018-08-10T07:11:49.253Z,100438.65
2018-08-10T07:16:54.060Z,100443.01
2018-08-10T07:21:58.835Z,100429.41
2018-08-10T07:27:03.643Z,100432.30
2018-08-10T07:32:08.483Z,100429.68
2018-08-10T07:37:13.197Z,100448.13
2018-08-10T07:42:18.069Z,100443.92
2018-08-10T07:47:22.925Z,100444.05
2018-08-10T07:52:27.590Z,100448.16
2018-08-10T07:57:32.428Z,100448.47
2018-08-10T08:02:37.707Z,100447.44
2018-08-10T08:07:42.363Z,100449.09
2018-08-10T08:12:47.207Z,100456.42
2018-08-10T08:17:52.051Z,100460.41
2018-08-10T08:23:05.180Z,100459.56
2018-08-10T08:28:10.004Z,100451.67
2018-08-10T08:33:14.803Z,100458.28
2018-08-10T08:38:36.252Z,100455.98
2018-08-10T08:45:58.357Z,100449.03
2018-08-10T08:51:04.618Z,100450.67
2018-08-10T08:56:12.400Z,100449.55
2018-08-10T09:01:17.769Z,100455.24
2018-08-10T09:06:22.443Z,100453.92
2018-08-10T09:11:27.308Z,100455.87
2018-08-10T09:16:32.120Z,100455.20
2018-08-10T09:21:37.009Z,100452.12
2018-08-10T09:26:41.984Z,100456.71
2018-08-10T09:31:46.863Z,100445.98
2018-08-10T09:36:51.706Z,100453.20
2018-08-10T09:41:56.505Z,100453.06
2018-08-10T09:47:01.970Z,100454.66
2018-08-10T09:52:08.455Z,100444.73
2018-08-10T09:57:15.478Z,100447.63
2018-08-10T10:02:22.086Z,100456.64
2018-08-10T10:07:26.847Z,100455.08
2018-08-10T10:12:31.605Z,100443.37
2018-08-10T10:17:37.184Z,100443.21
2018-08-10T10:22:42.292Z,100447.75
2018-08-10T10:27:47.152Z,100449.91
2018-08-10T10:32:53.117Z,100457.38
2018-08-10T10:37:57.862Z,100452.38
2018-08-10T10:43:02.678Z,100457.27
2018-08-10T10:48:07.985Z,100455.58
2018-08-10T10:53:12.780Z,100450.03
2018-08-10T10:58:17.518Z,100456.92
2018-08-10T11:03:22.437Z,100451.14
2018-08-10T11:08:27.154Z,100445.00
2018-08-10T11:13:31.877Z,100445.56
2018-08-10T11:18:36.535Z,100429.75
2018-08-10T11:23:41.360Z,100444.29
2018-08-10T11:28:46.186Z,100436.23
2018-08-10T11:33:51.044Z,100456.12
2018-08-10T11:38:55.802Z,100449.23
2018-08-10T11:44:00.551Z,100435.62
2018-08-10T11:49:10.340Z,100449.10
2018-08-10T11:54:15.265Z,100443.89
2018-08-10T11:59:20.137Z,100445.99
2018-08-10T12:04:24.916Z,100448.76
2018-08-10T12:09:29.735Z,100436.72
2018-08-10T12:14:34.451Z,100426.08
2018-08-10T12:19:39.245Z,100418.86
2018-08-10T12:24:44.078Z,100416.35
2018-08-10T12:29:48.865Z,100414.59
2018-08-10T12:34:53.563Z,100409.09
2018-08-10T12:39:58.254Z,100412.11
2018-08-10T12:45:03.027Z,100407.38
2018-08-10T12:50:08.423Z,100404.09
2018-08-10T12:55:13.258Z,100393.16
2018-08-10T13:00:18.203Z,100392.05
2018-08-10T13:05:22.967Z,100378.91
2018-08-10T13:10:27.874Z,100379.91
2018-08-10T13:15:32.715Z,100371.91
2018-08-10T13:20:37.420Z,100378.96
2018-08-10T13:25:42.147Z,100361.52
2018-08-10T13:30:49.356Z,100357.70
2018-08-10T13:35:54.060Z,100370.59
2018-08-10T13:40:58.848Z,100360.84
2018-08-10T13:46:03.557Z,100346.75
2018-08-10T13:51:08.279Z,100341.63
2018-08-10T13:56:13.132Z,100339.46
2018-08-10T14:01:18.132Z,100341.42
2018-08-10T14:06:22.924Z,100339.64
2018-08-10T14:11:27.934Z,100324.06
2018-08-10T14:16:33.371Z,100325.22
2018-08-10T14:22:17.944Z,100330.83
2018-08-10T14:27:22.771Z,100314.60
2018-08-10T14:32:27.597Z,100315.13
2018-08-10T14:37:32.524Z,100307.91
2018-08-10T14:42:38.074Z,100316.38
2018-08-10T14:47:43.150Z,100309.75
2018-08-10T14:52:48.008Z,100303.06
2018-08-10T14:57:52.893Z,100303.64
2018-08-10T15:02:57.804Z,100286.58
2018-08-10T15:08:02.609Z,100292.24
2018-08-10T15:13:07.558Z,100285.44
2018-08-10T15:18:12.544Z,100278.91
2018-08-10T15:23:17.275Z,100272.38
2018-08-10T15:28:22.116Z,100267.57
2018-08-10T15:33:26.948Z,100277.28
2018-08-10T15:38:31.970Z,100264.82
2018-08-10T15:43:36.949Z,100265.16
2018-08-10T15:48:41.845Z,100260.09
2018-08-10T15:53:46.965Z,100273.52
2018-08-10T15:58:51.842Z,100253.00
2018-08-10T16:03:56.542Z,100245.98
2018-08-10T16:09:01.399Z,100251.51
2018-08-10T16:14:06.335Z,100251.20
2018-08-10T16:19:11.149Z,100242.70
2018-08-10T16:24:16.011Z,100244.97
2018-08-10T16:29:20.895Z,100242.59
2018-08-10T16:34:26.174Z,100244.45
2018-08-10T16:39:31.001Z,100233.59
2018-08-10T16:44:35.746Z,100229.30
2018-08-10T16:49:40.590Z,100227.06
2018-08-10T16:54:45.390Z,100220.35
2018-08-10T16:59:50.185Z,100222.88
2018-08-10T17:04:54.993Z,100229.33
2018-08-10T17:09:59.842Z,100237.27
2018-08-10T17:15:06.589Z,100236.10
2018-08-10T17:20:11.795Z,100231.30
2018-08-10T17:25:19.148Z,100236.61
2018-08-10T17:30:23.951Z,100231.09
2018-08-10T17:35:28.709Z,100232.02
2018-08-10T17:40:33.468Z,100224.97
2018-08-10T17:45:40.015Z,100233.55
2018-08-10T17:50:44.845Z,100233.47
2018-08-10T17:55:49.712Z,100233.11
2018-08-10T18:00:54.582Z,100232.15
2018-08-10T18:05:59.469Z,100237.84
2018-08-10T18:11:04.385Z,100241.20
2018-08-10T18:16:09.291Z,100244.77
2018-08-10T18:21:14.167Z,100254.84
2018-08-10T18:26:18.943Z,100249.59
2018-08-10T18:31:23.887Z,100248.45
2018-08-10T18:36:28.895Z,100259.69
2018-08-10T18:41:33.895Z,100247.38
2018-08-10T18:46:39.648Z,100253.69
2018-08-10T18:51:44.387Z,100264.52
2018-08-10T18:56:49.275Z,100267.20
2018-08-10T19:01:54.079Z,100272.39
2018-08-10T19:06:58.824Z,100274.25
2018-08-10T19:12:03.711Z,100277.13
2018-08-10T19:17:08.603Z,100283.84
2018-08-10T19:22:13.613Z,100289.14
2018-08-10T19:27:18.513Z,100286.99
2018-08-10T19:32:23.831Z,100293.89
2018-08-10T19:37:28.761Z,100290.46
2018-08-10T19:42:33.647Z,100296.34
2018-08-10T19:47:38.967Z,100303.45
2018-08-10T19:52:44.272Z,100305.88
2018-08-10T19:57:49.063Z,100304.73
2018-08-10T20:02:53.907Z,100301.41
2018-08-10T20:07:58.931Z,100312.25
2018-08-10T20:13:03.764Z,100300.55
2018-08-10T20:18:08.629Z,100300.02
2018-08-10T20:23:13.521Z,100308.59
2018-08-10T20:28:18.334Z,100312.96
2018-08-10T20:33:23.091Z,100306.38
2018-08-10T20:38:27.797Z,100306.59
2018-08-10T20:43:32.644Z,100314.21
2018-08-10T20:48:37.587Z,100311.74
2018-08-10T20:53:42.604Z,100308.70
2018-08-10T20:58:47.464Z,100308.64
2018-08-10T21:03:52.284Z,100306.53
2018-08-10T21:08:57.015Z,100309.94
2018-08-10T21:14:01.908Z,100308.36
2018-08-10T21:19:07.035Z,100297.45
2018-08-10T21:24:11.769Z,100301.87
2018-08-10T21:29:16.734Z,100306.89
2018-08-10T21:34:21.449Z,100311.81
2018-08-10T21:39:26.293Z,100299.45
2018-08-10T21:44:31.109Z,100307.59
2018-08-10T21:49:35.804Z,100311.39
2018-08-10T21:54:40.527Z,100307.34
2018-08-10T21:59:45.222Z,100316.84
2018-08-10T22:04:49.930Z,100310.92
2018-08-10T22:09:54.725Z,100313.17
2018-08-10T22:15:04.762Z,100309.49
2018-08-10T22:20:09.590Z,100315.41
2018-08-10T22:25:14.622Z,100319.30
2018-08-10T22:30:19.364Z,100324.52
2018-08-10T22:35:24.202Z,100318.00
2018-08-10T22:40:29.016Z,100312.09
2018-08-10T22:45:33.882Z,100315.42
2018-08-10T22:50:38.965Z,100316.30
2018-08-10T22:55:43.730Z,100316.76
2018-08-10T23:00:48.655Z,100315.70
2018-08-10T23:05:53.442Z,100309.94
2018-08-10T23:10:58.264Z,100315.48
2018-08-10T23:16:03.074Z,100305.30
2018-08-10T23:21:08.161Z,100307.83
2018-08-10T23:26:13.058Z,100297.68
2018-08-10T23:31:17.857Z,100296.51
2018-08-10T23:36:22.726Z,100298.28
2018-08-10T23:41:27.522Z,100301.59
2018-08-10T23:46:32.417Z,100289.90
2018-08-10T23:51:37.282Z,100274.69
2018-08-10T23:56:42.112Z,100279.12
